sensor_id;sensor_type;location;lat;lon;timestamp;P1;durP1;ratioP1;P2;durP2;ratioP2
5493;SDS011;2769;49.864;8.656;2023-04-15T00:00:01;3.13;;;2.70;;
5493;SDS011;2769;49.864;8.656;2023-04-15T00:02:39;5.70;;;2.50;;
5493;SDS011;2769;49.864;8.656;2023-04-15T00:05:07;9.43;;;2.00;;
5493;SDS011;2769;49.864;8.656;2023-04-15T00:07:35;3.33;;;2.27;;
5493;SDS011;2769;49.864;8.656;2023-04-15T00:10:04;5.37;;;2.47;;
5493;SDS011;2769;49.864;8.656;2023-04-15T00:12:32;3.10;;;2.90;;
5493;SDS011;2769;49.864;8.656;2023-04-15T00:15:00;3.73;;;2.97;;
5493;SDS011;2769;49.864;8.656;2023-04-15T00:17:29;3.00;;;2.60;;
5493;SDS011;2769;49.864;8.656;2023-04-15T00:19:58;4.67;;;2.60;;
5493;SDS011;2769;49.864;8.656;2023-04-15T00:22:26;3.20;;;2.93;;
5493;SDS011;2769;49.864;8.656;2023-04-15T00:24:54;2.80;;;2.53;;
5493;SDS011;2769;49.864;8.656;2023-04-15T00:27:22;3.13;;;2.80;;
5493;SDS011;2769;49.864;8.656;2023-04-15T00:29:50;3.33;;;3.03;;
5493;SDS011;2769;49.864;8.656;2023-04-15T00:32:18;4.17;;;3.20;;
5493;SDS011;2769;49.864;8.656;2023-04-15T00:34:46;6.20;;;3.30;;
5493;SDS011;2769;49.864;8.656;2023-04-15T00:37:16;3.00;;;2.80;;
5493;SDS011;2769;49.864;8.656;2023-04-15T00:39:44;9.63;;;3.10;;
5493;SDS011;2769;49.864;8.656;2023-04-15T00:42:12;5.97;;;3.17;;
5493;SDS011;2769;49.864;8.656;2023-04-15T00:44:40;5.07;;;3.00;;
5493;SDS011;2769;49.864;8.656;2023-04-15T00:47:08;4.60;;;3.03;;
5493;SDS011;2769;49.864;8.656;2023-04-15T00:49:36;4.33;;;2.77;;
5493;SDS011;2769;49.864;8.656;2023-04-15T00:52:04;3.47;;;2.97;;
5493;SDS011;2769;49.864;8.656;2023-04-15T00:54:33;3.27;;;2.97;;
5493;SDS011;2769;49.864;8.656;2023-04-15T00:57:02;2.50;;;2.30;;
5493;SDS011;2769;49.864;8.656;2023-04-15T00:59:32;4.03;;;3.00;;
5493;SDS011;2769;49.864;8.656;2023-04-15T01:02:00;4.90;;;2.40;;
5493;SDS011;2769;49.864;8.656;2023-04-15T01:04:28;2.70;;;2.50;;
5493;SDS011;2769;49.864;8.656;2023-04-15T01:06:57;2.87;;;2.57;;
5493;SDS011;2769;49.864;8.656;2023-04-15T01:09:25;3.73;;;2.70;;
5493;SDS011;2769;49.864;8.656;2023-04-15T01:11:55;3.63;;;2.70;;
5493;SDS011;2769;49.864;8.656;2023-04-15T01:14:23;3.80;;;2.63;;
5493;SDS011;2769;49.864;8.656;2023-04-15T01:16:52;3.77;;;2.63;;
5493;SDS011;2769;49.864;8.656;2023-04-15T01:19:19;3.10;;;2.90;;
5493;SDS011;2769;49.864;8.656;2023-04-15T01:21:48;5.90;;;2.73;;
5493;SDS011;2769;49.864;8.656;2023-04-15T01:24:17;7.30;;;2.70;;
5493;SDS011;2769;49.864;8.656;2023-04-15T01:26:48;3.60;;;2.33;;
5493;SDS011;2769;49.864;8.656;2023-04-15T01:29:17;3.07;;;2.57;;
5493;SDS011;2769;49.864;8.656;2023-04-15T01:31:48;3.97;;;2.50;;
5493;SDS011;2769;49.864;8.656;2023-04-15T01:34:18;2.60;;;2.40;;
5493;SDS011;2769;49.864;8.656;2023-04-15T01:36:46;3.60;;;2.43;;
5493;SDS011;2769;49.864;8.656;2023-04-15T01:39:14;5.20;;;2.40;;
5493;SDS011;2769;49.864;8.656;2023-04-15T01:41:42;4.20;;;2.73;;
5493;SDS011;2769;49.864;8.656;2023-04-15T01:44:12;2.33;;;2.23;;
5493;SDS011;2769;49.864;8.656;2023-04-15T01:46:40;2.33;;;2.23;;
5493;SDS011;2769;49.864;8.656;2023-04-15T01:49:08;3.20;;;2.47;;
5493;SDS011;2769;49.864;8.656;2023-04-15T01:51:36;3.03;;;2.57;;
5493;SDS011;2769;49.864;8.656;2023-04-15T01:54:04;3.80;;;2.27;;
5493;SDS011;2769;49.864;8.656;2023-04-15T01:56:33;3.40;;;2.60;;
5493;SDS011;2769;49.864;8.656;2023-04-15T01:59:02;5.93;;;3.00;;
5493;SDS011;2769;49.864;8.656;2023-04-15T02:01:31;3.03;;;2.30;;
5493;SDS011;2769;49.864;8.656;2023-04-15T02:03:59;2.60;;;2.40;;
5493;SDS011;2769;49.864;8.656;2023-04-15T02:06:29;7.50;;;2.63;;
5493;SDS011;2769;49.864;8.656;2023-04-15T02:08:57;4.20;;;2.70;;
5493;SDS011;2769;49.864;8.656;2023-04-15T02:11:26;2.87;;;2.50;;
5493;SDS011;2769;49.864;8.656;2023-04-15T02:13:54;6.60;;;2.83;;
5493;SDS011;2769;49.864;8.656;2023-04-15T02:16:24;2.80;;;2.60;;
5493;SDS011;2769;49.864;8.656;2023-04-15T02:18:53;4.57;;;3.40;;
5493;SDS011;2769;49.864;8.656;2023-04-15T02:21:21;6.40;;;2.70;;
5493;SDS011;2769;49.864;8.656;2023-04-15T02:23:49;6.03;;;3.07;;
5493;SDS011;2769;49.864;8.656;2023-04-15T02:26:19;2.97;;;2.77;;
5493;SDS011;2769;49.864;8.656;2023-04-15T02:28:48;3.40;;;2.37;;
5493;SDS011;2769;49.864;8.656;2023-04-15T02:31:17;2.73;;;2.53;;
5493;SDS011;2769;49.864;8.656;2023-04-15T02:33:45;5.70;;;2.60;;
5493;SDS011;2769;49.864;8.656;2023-04-15T02:36:14;3.00;;;2.70;;
5493;SDS011;2769;49.864;8.656;2023-04-15T02:38:42;4.87;;;2.77;;
5493;SDS011;2769;49.864;8.656;2023-04-15T02:41:12;6.83;;;2.77;;
5493;SDS011;2769;49.864;8.656;2023-04-15T02:43:42;3.50;;;2.60;;
5493;SDS011;2769;49.864;8.656;2023-04-15T02:46:12;2.40;;;2.30;;
5493;SDS011;2769;49.864;8.656;2023-04-15T02:48:40;2.93;;;2.37;;
5493;SDS011;2769;49.864;8.656;2023-04-15T02:51:12;2.60;;;2.37;;
5493;SDS011;2769;49.864;8.656;2023-04-15T02:53:42;5.10;;;2.70;;
5493;SDS011;2769;49.864;8.656;2023-04-15T02:56:10;4.87;;;2.70;;
5493;SDS011;2769;49.864;8.656;2023-04-15T02:58:38;2.50;;;2.30;;
5493;SDS011;2769;49.864;8.656;2023-04-15T03:01:06;6.00;;;2.60;;
5493;SDS011;2769;49.864;8.656;2023-04-15T03:03:35;4.80;;;2.40;;
5493;SDS011;2769;49.864;8.656;2023-04-15T03:06:03;2.50;;;2.30;;
5493;SDS011;2769;49.864;8.656;2023-04-15T03:08:31;3.83;;;2.87;;
5493;SDS011;2769;49.864;8.656;2023-04-15T03:11:00;2.43;;;2.30;;
5493;SDS011;2769;49.864;8.656;2023-04-15T03:13:28;4.50;;;2.70;;
5493;SDS011;2769;49.864;8.656;2023-04-15T03:15:58;3.63;;;2.80;;
5493;SDS011;2769;49.864;8.656;2023-04-15T03:18:27;2.60;;;2.40;;
5493;SDS011;2769;49.864;8.656;2023-04-15T03:20:59;4.30;;;2.10;;
5493;SDS011;2769;49.864;8.656;2023-04-15T03:23:30;2.80;;;2.60;;
5493;SDS011;2769;49.864;8.656;2023-04-15T03:26:01;2.73;;;2.50;;
5493;SDS011;2769;49.864;8.656;2023-04-15T03:28:31;3.03;;;2.60;;
5493;SDS011;2769;49.864;8.656;2023-04-15T03:31:00;5.07;;;2.80;;
5493;SDS011;2769;49.864;8.656;2023-04-15T03:33:28;4.23;;;2.80;;
5493;SDS011;2769;49.864;8.656;2023-04-15T03:35:56;3.73;;;3.20;;
5493;SDS011;2769;49.864;8.656;2023-04-15T03:38:24;3.00;;;2.70;;
5493;SDS011;2769;49.864;8.656;2023-04-15T03:40:52;4.20;;;3.13;;
5493;SDS011;2769;49.864;8.656;2023-04-15T03:43:21;3.17;;;2.97;;
5493;SDS011;2769;49.864;8.656;2023-04-15T03:45:49;5.33;;;3.23;;
5493;SDS011;2769;49.864;8.656;2023-04-15T03:48:17;6.17;;;3.50;;
5493;SDS011;2769;49.864;8.656;2023-04-15T03:50:45;4.20;;;3.33;;
5493;SDS011;2769;49.864;8.656;2023-04-15T03:53:13;3.93;;;3.00;;
5493;SDS011;2769;49.864;8.656;2023-04-15T03:55:41;3.50;;;3.10;;
5493;SDS011;2769;49.864;8.656;2023-04-15T03:58:10;4.70;;;3.40;;
5493;SDS011;2769;49.864;8.656;2023-04-15T04:00:39;3.67;;;3.20;;
5493;SDS011;2769;49.864;8.656;2023-04-15T04:03:07;3.93;;;2.43;;
5493;SDS011;2769;49.864;8.656;2023-04-15T04:05:36;3.03;;;2.53;;
5493;SDS011;2769;49.864;8.656;2023-04-15T04:08:06;2.97;;;2.60;;
5493;SDS011;2769;49.864;8.656;2023-04-15T04:10:34;4.07;;;2.60;;
5493;SDS011;2769;49.864;8.656;2023-04-15T04:13:02;2.87;;;2.60;;
5493;SDS011;2769;49.864;8.656;2023-04-15T04:15:30;3.10;;;2.80;;
5493;SDS011;2769;49.864;8.656;2023-04-15T04:18:02;4.07;;;3.00;;
5493;SDS011;2769;49.864;8.656;2023-04-15T04:20:30;5.43;;;2.80;;
5493;SDS011;2769;49.864;8.656;2023-04-15T04:22:58;4.87;;;2.97;;
5493;SDS011;2769;49.864;8.656;2023-04-15T04:25:26;3.37;;;3.17;;
5493;SDS011;2769;49.864;8.656;2023-04-15T04:27:54;3.67;;;2.80;;
5493;SDS011;2769;49.864;8.656;2023-04-15T04:30:22;3.00;;;2.80;;
5493;SDS011;2769;49.864;8.656;2023-04-15T04:32:50;3.10;;;2.80;;
5493;SDS011;2769;49.864;8.656;2023-04-15T04:35:20;6.23;;;3.20;;
5493;SDS011;2769;49.864;8.656;2023-04-15T04:37:48;3.93;;;3.00;;
5493;SDS011;2769;49.864;8.656;2023-04-15T04:40:16;3.13;;;2.83;;
5493;SDS011;2769;49.864;8.656;2023-04-15T04:42:44;3.70;;;3.40;;
5493;SDS011;2769;49.864;8.656;2023-04-15T04:45:12;3.60;;;3.30;;
5493;SDS011;2769;49.864;8.656;2023-04-15T04:47:40;5.47;;;3.57;;
5493;SDS011;2769;49.864;8.656;2023-04-15T04:50:08;3.37;;;3.17;;
5493;SDS011;2769;49.864;8.656;2023-04-15T04:52:41;3.63;;;3.33;;
5493;SDS011;2769;49.864;8.656;2023-04-15T04:55:09;3.10;;;2.90;;
5493;SDS011;2769;49.864;8.656;2023-04-15T04:57:37;4.83;;;2.30;;
5493;SDS011;2769;49.864;8.656;2023-04-15T05:00:05;4.27;;;3.50;;
5493;SDS011;2769;49.864;8.656;2023-04-15T05:02:34;4.40;;;2.93;;
5493;SDS011;2769;49.864;8.656;2023-04-15T05:05:02;7.03;;;3.80;;
5493;SDS011;2769;49.864;8.656;2023-04-15T05:07:30;4.00;;;3.43;;
5493;SDS011;2769;49.864;8.656;2023-04-15T05:10:00;3.77;;;3.40;;
5493;SDS011;2769;49.864;8.656;2023-04-15T05:12:28;4.67;;;3.27;;
5493;SDS011;2769;49.864;8.656;2023-04-15T05:14:56;2.73;;;2.53;;
5493;SDS011;2769;49.864;8.656;2023-04-15T05:17:23;3.40;;;2.83;;
5493;SDS011;2769;49.864;8.656;2023-04-15T05:19:51;4.30;;;3.13;;
5493;SDS011;2769;49.864;8.656;2023-04-15T05:22:19;4.60;;;3.50;;
5493;SDS011;2769;49.864;8.656;2023-04-15T05:24:47;3.63;;;3.30;;
5493;SDS011;2769;49.864;8.656;2023-04-15T05:27:19;3.13;;;2.83;;
5493;SDS011;2769;49.864;8.656;2023-04-15T05:29:48;4.50;;;3.27;;
5493;SDS011;2769;49.864;8.656;2023-04-15T05:32:15;4.23;;;3.83;;
5493;SDS011;2769;49.864;8.656;2023-04-15T05:34:43;3.63;;;3.33;;
5493;SDS011;2769;49.864;8.656;2023-04-15T05:37:12;3.77;;;3.33;;
5493;SDS011;2769;49.864;8.656;2023-04-15T05:39:40;3.27;;;3.10;;
5493;SDS011;2769;49.864;8.656;2023-04-15T05:42:08;10.40;;;4.00;;
5493;SDS011;2769;49.864;8.656;2023-04-15T05:44:38;7.70;;;3.23;;
5493;SDS011;2769;49.864;8.656;2023-04-15T05:47:06;3.53;;;3.30;;
5493;SDS011;2769;49.864;8.656;2023-04-15T05:49:35;4.93;;;3.20;;
5493;SDS011;2769;49.864;8.656;2023-04-15T05:52:03;4.73;;;3.63;;
5493;SDS011;2769;49.864;8.656;2023-04-15T05:54:31;3.53;;;3.23;;
5493;SDS011;2769;49.864;8.656;2023-04-15T05:56:59;4.70;;;3.83;;
5493;SDS011;2769;49.864;8.656;2023-04-15T05:59:28;6.17;;;4.13;;
5493;SDS011;2769;49.864;8.656;2023-04-15T06:01:57;7.90;;;4.53;;
5493;SDS011;2769;49.864;8.656;2023-04-15T06:04:25;5.37;;;3.80;;
5493;SDS011;2769;49.864;8.656;2023-04-15T06:06:54;5.87;;;4.13;;
5493;SDS011;2769;49.864;8.656;2023-04-15T06:09:22;10.47;;;5.40;;
5493;SDS011;2769;49.864;8.656;2023-04-15T06:11:50;4.10;;;3.80;;
5493;SDS011;2769;49.864;8.656;2023-04-15T06:14:18;4.87;;;3.80;;
5493;SDS011;2769;49.864;8.656;2023-04-15T06:16:46;4.10;;;3.80;;
5493;SDS011;2769;49.864;8.656;2023-04-15T06:19:15;5.13;;;3.60;;
5493;SDS011;2769;49.864;8.656;2023-04-15T06:21:43;4.23;;;3.70;;
5493;SDS011;2769;49.864;8.656;2023-04-15T06:24:11;6.00;;;3.67;;
5493;SDS011;2769;49.864;8.656;2023-04-15T06:26:39;5.77;;;3.50;;
5493;SDS011;2769;49.864;8.656;2023-04-15T06:29:07;6.23;;;4.47;;
5493;SDS011;2769;49.864;8.656;2023-04-15T06:31:35;4.17;;;3.67;;
5493;SDS011;2769;49.864;8.656;2023-04-15T06:34:03;4.47;;;3.50;;
5493;SDS011;2769;49.864;8.656;2023-04-15T06:36:32;7.53;;;4.17;;
5493;SDS011;2769;49.864;8.656;2023-04-15T06:39:00;3.60;;;3.30;;
5493;SDS011;2769;49.864;8.656;2023-04-15T06:41:29;4.10;;;3.00;;
5493;SDS011;2769;49.864;8.656;2023-04-15T06:43:57;6.30;;;4.30;;
5493;SDS011;2769;49.864;8.656;2023-04-15T06:46:25;4.27;;;3.80;;
5493;SDS011;2769;49.864;8.656;2023-04-15T06:48:53;4.70;;;3.73;;
5493;SDS011;2769;49.864;8.656;2023-04-15T06:51:21;4.03;;;3.63;;
5493;SDS011;2769;49.864;8.656;2023-04-15T06:53:53;5.63;;;4.70;;
5493;SDS011;2769;49.864;8.656;2023-04-15T06:56:22;7.23;;;4.47;;
5493;SDS011;2769;49.864;8.656;2023-04-15T06:58:50;5.13;;;4.00;;
5493;SDS011;2769;49.864;8.656;2023-04-15T07:01:18;4.90;;;4.43;;
5493;SDS011;2769;49.864;8.656;2023-04-15T07:03:46;6.67;;;4.50;;
5493;SDS011;2769;49.864;8.656;2023-04-15T07:06:14;5.00;;;4.50;;
5493;SDS011;2769;49.864;8.656;2023-04-15T07:08:42;5.70;;;4.93;;
5493;SDS011;2769;49.864;8.656;2023-04-15T07:11:11;4.70;;;4.30;;
5493;SDS011;2769;49.864;8.656;2023-04-15T07:13:39;6.00;;;4.80;;
5493;SDS011;2769;49.864;8.656;2023-04-15T07:16:07;7.00;;;5.90;;
5493;SDS011;2769;49.864;8.656;2023-04-15T07:18:35;5.37;;;4.87;;
5493;SDS011;2769;49.864;8.656;2023-04-15T07:21:03;5.40;;;4.90;;
5493;SDS011;2769;49.864;8.656;2023-04-15T07:23:31;5.73;;;5.10;;
5493;SDS011;2769;49.864;8.656;2023-04-15T07:25:59;9.33;;;5.20;;
5493;SDS011;2769;49.864;8.656;2023-04-15T07:28:29;5.87;;;5.30;;
5493;SDS011;2769;49.864;8.656;2023-04-15T07:30:57;7.93;;;5.43;;
5493;SDS011;2769;49.864;8.656;2023-04-15T07:33:25;9.00;;;6.10;;
5493;SDS011;2769;49.864;8.656;2023-04-15T07:35:53;6.10;;;5.50;;
5493;SDS011;2769;49.864;8.656;2023-04-15T07:38:22;8.30;;;5.50;;
5493;SDS011;2769;49.864;8.656;2023-04-15T07:40:49;7.00;;;5.47;;
5493;SDS011;2769;49.864;8.656;2023-04-15T07:43:17;8.77;;;5.70;;
5493;SDS011;2769;49.864;8.656;2023-04-15T07:45:47;9.03;;;5.70;;
5493;SDS011;2769;49.864;8.656;2023-04-15T07:48:15;12.83;;;6.57;;
5493;SDS011;2769;49.864;8.656;2023-04-15T07:50:43;9.17;;;5.80;;
5493;SDS011;2769;49.864;8.656;2023-04-15T07:53:11;8.27;;;6.50;;
5493;SDS011;2769;49.864;8.656;2023-04-15T07:55:40;8.93;;;5.47;;
5493;SDS011;2769;49.864;8.656;2023-04-15T07:58:08;6.90;;;5.90;;
5493;SDS011;2769;49.864;8.656;2023-04-15T08:00:36;9.70;;;6.40;;
5493;SDS011;2769;49.864;8.656;2023-04-15T08:03:06;7.50;;;6.37;;
5493;SDS011;2769;49.864;8.656;2023-04-15T08:05:34;7.03;;;6.33;;
5493;SDS011;2769;49.864;8.656;2023-04-15T08:08:02;7.03;;;6.33;;
5493;SDS011;2769;49.864;8.656;2023-04-15T08:10:30;12.57;;;5.83;;
5493;SDS011;2769;49.864;8.656;2023-04-15T08:12:58;7.13;;;5.90;;
5493;SDS011;2769;49.864;8.656;2023-04-15T08:15:26;6.67;;;5.40;;
5493;SDS011;2769;49.864;8.656;2023-04-15T08:17:54;7.87;;;5.90;;
5493;SDS011;2769;49.864;8.656;2023-04-15T08:20:24;7.40;;;5.40;;
5493;SDS011;2769;49.864;8.656;2023-04-15T08:22:51;6.20;;;5.60;;
5493;SDS011;2769;49.864;8.656;2023-04-15T08:25:19;6.07;;;5.53;;
5493;SDS011;2769;49.864;8.656;2023-04-15T08:27:47;6.77;;;6.07;;
5493;SDS011;2769;49.864;8.656;2023-04-15T08:30:15;7.13;;;5.80;;
5493;SDS011;2769;49.864;8.656;2023-04-15T08:32:44;10.40;;;6.90;;
5493;SDS011;2769;49.864;8.656;2023-04-15T08:35:13;8.53;;;6.20;;
5493;SDS011;2769;49.864;8.656;2023-04-15T08:37:43;7.03;;;6.40;;
5493;SDS011;2769;49.864;8.656;2023-04-15T08:40:11;8.10;;;6.47;;
5493;SDS011;2769;49.864;8.656;2023-04-15T08:42:40;8.77;;;6.50;;
5493;SDS011;2769;49.864;8.656;2023-04-15T08:45:10;7.40;;;6.10;;
5493;SDS011;2769;49.864;8.656;2023-04-15T08:47:38;5.97;;;5.10;;
5493;SDS011;2769;49.864;8.656;2023-04-15T08:50:07;6.87;;;5.00;;
5493;SDS011;2769;49.864;8.656;2023-04-15T08:52:36;4.90;;;4.60;;
5493;SDS011;2769;49.864;8.656;2023-04-15T08:55:06;9.20;;;4.53;;
5493;SDS011;2769;49.864;8.656;2023-04-15T08:57:35;9.17;;;4.27;;
5493;SDS011;2769;49.864;8.656;2023-04-15T09:00:04;4.53;;;4.13;;
5493;SDS011;2769;49.864;8.656;2023-04-15T09:02:32;4.33;;;3.93;;
5493;SDS011;2769;49.864;8.656;2023-04-15T09:05:00;5.27;;;4.07;;
5493;SDS011;2769;49.864;8.656;2023-04-15T09:07:32;6.77;;;4.10;;
5493;SDS011;2769;49.864;8.656;2023-04-15T09:10:00;4.00;;;3.60;;
5493;SDS011;2769;49.864;8.656;2023-04-15T09:12:32;5.30;;;3.70;;
5493;SDS011;2769;49.864;8.656;2023-04-15T09:15:01;5.03;;;3.53;;
5493;SDS011;2769;49.864;8.656;2023-04-15T09:17:29;3.70;;;3.40;;
5493;SDS011;2769;49.864;8.656;2023-04-15T09:20:07;3.27;;;3.00;;
5493;SDS011;2769;49.864;8.656;2023-04-15T09:22:35;3.17;;;2.97;;
5493;SDS011;2769;49.864;8.656;2023-04-15T09:25:04;6.67;;;3.00;;
5493;SDS011;2769;49.864;8.656;2023-04-15T09:27:54;3.67;;;3.37;;
5493;SDS011;2769;49.864;8.656;2023-04-15T09:30:23;4.73;;;2.60;;
5493;SDS011;2769;49.864;8.656;2023-04-15T09:32:53;5.87;;;2.90;;
5493;SDS011;2769;49.864;8.656;2023-04-15T09:35:23;6.03;;;2.67;;
5493;SDS011;2769;49.864;8.656;2023-04-15T09:37:52;2.27;;;2.13;;
5493;SDS011;2769;49.864;8.656;2023-04-15T09:40:29;2.37;;;2.20;;
5493;SDS011;2769;49.864;8.656;2023-04-15T09:42:59;3.13;;;1.70;;
5493;SDS011;2769;49.864;8.656;2023-04-15T09:45:28;1.70;;;1.60;;
5493;SDS011;2769;49.864;8.656;2023-04-15T09:47:56;3.03;;;1.87;;
5493;SDS011;2769;49.864;8.656;2023-04-15T09:50:26;1.87;;;1.70;;
5493;SDS011;2769;49.864;8.656;2023-04-15T09:52:55;2.43;;;2.17;;
5493;SDS011;2769;49.864;8.656;2023-04-15T09:55:24;2.07;;;1.97;;
5493;SDS011;2769;49.864;8.656;2023-04-15T09:57:52;2.20;;;1.40;;
5493;SDS011;2769;49.864;8.656;2023-04-15T10:00:22;4.33;;;2.23;;
5493;SDS011;2769;49.864;8.656;2023-04-15T10:02:50;1.60;;;1.53;;
5493;SDS011;2769;49.864;8.656;2023-04-15T10:05:18;2.60;;;1.80;;
5493;SDS011;2769;49.864;8.656;2023-04-15T10:07:48;2.97;;;1.73;;
5493;SDS011;2769;49.864;8.656;2023-04-15T10:10:17;1.60;;;1.50;;
5493;SDS011;2769;49.864;8.656;2023-04-15T10:12:45;2.47;;;2.27;;
5493;SDS011;2769;49.864;8.656;2023-04-15T10:15:13;2.47;;;2.30;;
5493;SDS011;2769;49.864;8.656;2023-04-15T10:17:44;3.27;;;2.23;;
5493;SDS011;2769;49.864;8.656;2023-04-15T10:20:15;4.70;;;2.50;;
5493;SDS011;2769;49.864;8.656;2023-04-15T10:22:44;2.20;;;2.00;;
5493;SDS011;2769;49.864;8.656;2023-04-15T10:25:13;2.30;;;2.20;;
5493;SDS011;2769;49.864;8.656;2023-04-15T10:27:42;4.20;;;2.50;;
5493;SDS011;2769;49.864;8.656;2023-04-15T10:30:10;2.80;;;2.60;;
5493;SDS011;2769;49.864;8.656;2023-04-15T10:32:38;2.10;;;2.00;;
5493;SDS011;2769;49.864;8.656;2023-04-15T10:35:08;1.90;;;1.80;;
5493;SDS011;2769;49.864;8.656;2023-04-15T10:37:36;2.00;;;1.90;;
5493;SDS011;2769;49.864;8.656;2023-04-15T10:40:24;3.37;;;2.30;;
5493;SDS011;2769;49.864;8.656;2023-04-15T10:42:54;2.37;;;2.10;;
5493;SDS011;2769;49.864;8.656;2023-04-15T10:45:24;3.37;;;2.53;;
5493;SDS011;2769;49.864;8.656;2023-04-15T10:47:56;2.73;;;2.20;;
5493;SDS011;2769;49.864;8.656;2023-04-15T10:50:30;3.17;;;2.20;;
5493;SDS011;2769;49.864;8.656;2023-04-15T10:53:01;4.80;;;2.53;;
5493;SDS011;2769;49.864;8.656;2023-04-15T10:55:30;1.97;;;1.87;;
5493;SDS011;2769;49.864;8.656;2023-04-15T10:58:00;1.80;;;1.70;;
5493;SDS011;2769;49.864;8.656;2023-04-15T11:00:28;2.20;;;2.00;;
5493;SDS011;2769;49.864;8.656;2023-04-15T11:02:57;2.13;;;1.90;;
5493;SDS011;2769;49.864;8.656;2023-04-15T11:08:17;2.03;;;1.80;;
5493;SDS011;2769;49.864;8.656;2023-04-15T11:10:49;1.67;;;1.57;;
5493;SDS011;2769;49.864;8.656;2023-04-15T11:13:24;1.90;;;1.80;;
5493;SDS011;2769;49.864;8.656;2023-04-15T11:16:01;3.03;;;2.00;;
5493;SDS011;2769;49.864;8.656;2023-04-15T11:18:31;1.70;;;1.60;;
5493;SDS011;2769;49.864;8.656;2023-04-15T11:21:02;2.00;;;1.83;;
5493;SDS011;2769;49.864;8.656;2023-04-15T11:23:36;2.20;;;1.80;;
5493;SDS011;2769;49.864;8.656;2023-04-15T11:26:05;1.50;;;1.40;;
5493;SDS011;2769;49.864;8.656;2023-04-15T11:28:38;1.50;;;1.40;;
5493;SDS011;2769;49.864;8.656;2023-04-15T11:31:07;2.50;;;1.63;;
5493;SDS011;2769;49.864;8.656;2023-04-15T11:33:38;3.23;;;1.70;;
5493;SDS011;2769;49.864;8.656;2023-04-15T11:36:13;2.23;;;2.03;;
5493;SDS011;2769;49.864;8.656;2023-04-15T11:38:41;2.03;;;1.93;;
5493;SDS011;2769;49.864;8.656;2023-04-15T11:41:11;2.23;;;2.13;;
5493;SDS011;2769;49.864;8.656;2023-04-15T11:43:40;3.70;;;2.00;;
5493;SDS011;2769;49.864;8.656;2023-04-15T11:46:08;3.20;;;2.10;;
5493;SDS011;2769;49.864;8.656;2023-04-15T11:48:36;2.30;;;2.10;;
5493;SDS011;2769;49.864;8.656;2023-04-15T11:51:08;2.27;;;2.13;;
5493;SDS011;2769;49.864;8.656;2023-04-15T11:53:38;1.97;;;1.87;;
5493;SDS011;2769;49.864;8.656;2023-04-15T11:56:08;1.90;;;1.80;;
5493;SDS011;2769;49.864;8.656;2023-04-15T11:58:37;2.20;;;1.53;;
5493;SDS011;2769;49.864;8.656;2023-04-15T12:01:06;2.10;;;1.77;;
5493;SDS011;2769;49.864;8.656;2023-04-15T12:03:37;1.80;;;1.70;;
5493;SDS011;2769;49.864;8.656;2023-04-15T12:06:10;2.10;;;1.90;;
5493;SDS011;2769;49.864;8.656;2023-04-15T12:08:50;2.30;;;2.20;;
5493;SDS011;2769;49.864;8.656;2023-04-15T12:11:30;2.00;;;1.90;;
5493;SDS011;2769;49.864;8.656;2023-04-15T12:14:02;2.20;;;2.00;;
5493;SDS011;2769;49.864;8.656;2023-04-15T12:16:32;2.50;;;2.40;;
5493;SDS011;2769;49.864;8.656;2023-04-15T12:19:16;6.30;;;2.00;;
5493;SDS011;2769;49.864;8.656;2023-04-15T12:21:45;1.60;;;1.53;;
5493;SDS011;2769;49.864;8.656;2023-04-15T12:24:18;2.60;;;1.60;;
5493;SDS011;2769;49.864;8.656;2023-04-15T12:26:48;2.53;;;1.60;;
5493;SDS011;2769;49.864;8.656;2023-04-15T12:29:16;1.20;;;1.20;;
5493;SDS011;2769;49.864;8.656;2023-04-15T12:31:48;2.30;;;1.30;;
5493;SDS011;2769;49.864;8.656;2023-04-15T12:34:17;2.23;;;1.47;;
5493;SDS011;2769;49.864;8.656;2023-04-15T12:36:46;4.40;;;1.90;;
5493;SDS011;2769;49.864;8.656;2023-04-15T12:39:15;2.53;;;1.73;;
5493;SDS011;2769;49.864;8.656;2023-04-15T12:41:43;2.37;;;1.67;;
5493;SDS011;2769;49.864;8.656;2023-04-15T12:44:11;2.57;;;2.37;;
5493;SDS011;2769;49.864;8.656;2023-04-15T12:46:39;3.23;;;2.40;;
5493;SDS011;2769;49.864;8.656;2023-04-15T12:49:07;3.13;;;2.93;;
5493;SDS011;2769;49.864;8.656;2023-04-15T12:51:35;3.07;;;2.40;;
5493;SDS011;2769;49.864;8.656;2023-04-15T12:54:03;2.97;;;2.80;;
5493;SDS011;2769;49.864;8.656;2023-04-15T12:56:33;2.90;;;2.70;;
5493;SDS011;2769;49.864;8.656;2023-04-15T12:59:01;2.43;;;2.33;;
5493;SDS011;2769;49.864;8.656;2023-04-15T13:01:29;2.77;;;2.67;;
5493;SDS011;2769;49.864;8.656;2023-04-15T13:03:57;2.80;;;2.60;;
5493;SDS011;2769;49.864;8.656;2023-04-15T13:06:25;5.30;;;4.80;;
5493;SDS011;2769;49.864;8.656;2023-04-15T13:08:54;4.77;;;3.20;;
5493;SDS011;2769;49.864;8.656;2023-04-15T13:11:24;3.80;;;3.50;;
5493;SDS011;2769;49.864;8.656;2023-04-15T13:13:53;3.47;;;3.27;;
5493;SDS011;2769;49.864;8.656;2023-04-15T13:16:22;3.47;;;3.20;;
5493;SDS011;2769;49.864;8.656;2023-04-15T13:18:50;4.50;;;3.43;;
5493;SDS011;2769;49.864;8.656;2023-04-15T13:21:18;3.80;;;3.50;;
5493;SDS011;2769;49.864;8.656;2023-04-15T13:23:47;3.77;;;3.47;;
5493;SDS011;2769;49.864;8.656;2023-04-15T13:26:15;4.23;;;3.13;;
5493;SDS011;2769;49.864;8.656;2023-04-15T13:28:44;2.87;;;2.77;;
5493;SDS011;2769;49.864;8.656;2023-04-15T13:31:13;2.50;;;2.27;;
5493;SDS011;2769;49.864;8.656;2023-04-15T13:33:41;3.20;;;2.77;;
5493;SDS011;2769;49.864;8.656;2023-04-15T13:36:09;2.67;;;2.57;;
5493;SDS011;2769;49.864;8.656;2023-04-15T13:38:37;2.90;;;2.70;;
5493;SDS011;2769;49.864;8.656;2023-04-15T13:41:05;2.60;;;2.50;;
5493;SDS011;2769;49.864;8.656;2023-04-15T13:43:33;2.73;;;2.63;;
5493;SDS011;2769;49.864;8.656;2023-04-15T13:46:04;2.60;;;2.50;;
5493;SDS011;2769;49.864;8.656;2023-04-15T13:48:33;2.27;;;2.17;;
5493;SDS011;2769;49.864;8.656;2023-04-15T13:51:01;3.10;;;2.10;;
5493;SDS011;2769;49.864;8.656;2023-04-15T13:53:29;2.47;;;2.37;;
5493;SDS011;2769;49.864;8.656;2023-04-15T13:56:05;2.43;;;2.33;;
5493;SDS011;2769;49.864;8.656;2023-04-15T13:58:33;1.80;;;1.63;;
5493;SDS011;2769;49.864;8.656;2023-04-15T14:01:02;1.50;;;1.50;;
5493;SDS011;2769;49.864;8.656;2023-04-15T14:03:31;1.50;;;1.50;;
5493;SDS011;2769;49.864;8.656;2023-04-15T14:06:01;1.80;;;1.70;;
5493;SDS011;2769;49.864;8.656;2023-04-15T14:08:29;1.50;;;1.40;;
5493;SDS011;2769;49.864;8.656;2023-04-15T14:10:57;1.90;;;1.80;;
5493;SDS011;2769;49.864;8.656;2023-04-15T14:15:37;1.70;;;1.60;;
5493;SDS011;2769;49.864;8.656;2023-04-15T14:18:05;2.00;;;1.90;;
5493;SDS011;2769;49.864;8.656;2023-04-15T14:20:34;2.00;;;1.90;;
5493;SDS011;2769;49.864;8.656;2023-04-15T14:23:03;1.73;;;1.63;;
5493;SDS011;2769;49.864;8.656;2023-04-15T14:25:34;2.37;;;1.80;;
5493;SDS011;2769;49.864;8.656;2023-04-15T14:28:07;1.77;;;1.67;;
5493;SDS011;2769;49.864;8.656;2023-04-15T14:30:42;1.70;;;1.60;;
5493;SDS011;2769;49.864;8.656;2023-04-15T14:33:10;1.67;;;1.60;;
5493;SDS011;2769;49.864;8.656;2023-04-15T14:35:38;1.57;;;1.47;;
5493;SDS011;2769;49.864;8.656;2023-04-15T14:38:06;1.50;;;1.40;;
5493;SDS011;2769;49.864;8.656;2023-04-15T14:40:37;1.30;;;1.30;;
5493;SDS011;2769;49.864;8.656;2023-04-15T14:43:06;1.97;;;1.87;;
5493;SDS011;2769;49.864;8.656;2023-04-15T14:45:36;1.73;;;1.73;;
5493;SDS011;2769;49.864;8.656;2023-04-15T14:48:10;1.60;;;1.60;;
5493;SDS011;2769;49.864;8.656;2023-04-15T14:50:38;1.63;;;1.53;;
5493;SDS011;2769;49.864;8.656;2023-04-15T14:53:06;1.60;;;1.50;;
5493;SDS011;2769;49.864;8.656;2023-04-15T14:55:35;1.50;;;1.50;;
5493;SDS011;2769;49.864;8.656;2023-04-15T14:58:02;2.00;;;1.83;;
5493;SDS011;2769;49.864;8.656;2023-04-15T15:00:31;1.80;;;1.70;;
5493;SDS011;2769;49.864;8.656;2023-04-15T15:02:59;1.60;;;1.60;;
5493;SDS011;2769;49.864;8.656;2023-04-15T15:05:28;1.57;;;1.57;;
5493;SDS011;2769;49.864;8.656;2023-04-15T15:07:56;2.00;;;1.90;;
5493;SDS011;2769;49.864;8.656;2023-04-15T15:10:24;2.17;;;2.07;;
5493;SDS011;2769;49.864;8.656;2023-04-15T15:13:12;5.17;;;2.93;;
5493;SDS011;2769;49.864;8.656;2023-04-15T15:15:40;3.80;;;3.40;;
5493;SDS011;2769;49.864;8.656;2023-04-15T15:18:08;3.03;;;2.80;;
5493;SDS011;2769;49.864;8.656;2023-04-15T15:20:38;2.80;;;2.53;;
5493;SDS011;2769;49.864;8.656;2023-04-15T15:23:06;3.47;;;2.50;;
5493;SDS011;2769;49.864;8.656;2023-04-15T15:25:35;2.30;;;2.20;;
5493;SDS011;2769;49.864;8.656;2023-04-15T15:28:03;3.00;;;2.90;;
5493;SDS011;2769;49.864;8.656;2023-04-15T15:30:31;2.90;;;2.70;;